Thargomindah, Australia
Current Conditions -  °F | °C
As of 9:00 AM on Wednesday 28 Jan 2015 (Local Time) from YBCV Reporting Station
Overcast Overcast  
Wind Chill: 75°   Ceiling: 1900
Heat Index: 75°   Visibility: 6mi
Dew Point: 64°   Wind: 8mph
Humidity: 69%   Direction: 160°SSE
Pressure: 29.71"   Gusts: NA
Location:  28°S, 143.82°E
Report Text: YBCV 272300Z 16007KT 9999 OVC019 24/18 Q1006
Loading
Personal Weather Stations






























Interactive Weather Map New forecast layout! Learn more

10-Day Weather Forecast

Advertisements
Track Severe Weather on mobile